Time;durP1;ratioP1;P1;durP2;ratioP2;P2;SDS_P1;SDS_P2;PMS_P1;PMS_P2;Temp;Humidity;BMP_temperature;BMP_pressure;BME280_temperature;BME280_humidity;BME280_pressure;Samples;Min_cycle;Max_cycle;Signal;HPM_P1;HPM_P2
2023/07/17 00:00:15;;;;;;;17.83;15.90;;;;;;;25.57;79.34;95146.41;5092608;28;20447;-82
2023/07/17 00:02:43;;;;;;;16.73;14.40;;;;;;;25.53;79.09;95143.34;5041142;28;20505;-79
2023/07/17 00:05:11;;;;;;;17.93;15.77;;;;;;;25.51;78.46;95141.91;5092758;28;20485;-78
2023/07/17 00:07:39;;;;;;;19.90;14.20;;;;;;;25.45;77.97;95132.88;5092768;28;20469;-79
2023/07/17 00:10:07;;;;;;;16.13;13.90;;;;;;;25.39;77.73;95133.69;5092668;28;20856;-82
2023/07/17 00:12:34;;;;;;;16.03;12.43;;;;;;;25.43;77.30;95134.09;5040712;28;20439;-80
2023/07/17 00:15:04;;;;;;;16.77;14.67;;;;;;;25.35;76.96;95131.66;5092366;28;20930;-80
2023/07/17 00:17:32;;;;;;;15.23;13.63;;;;;;;25.39;77.10;95132.88;5093044;28;20489;-78
2023/07/17 00:20:01;;;;;;;14.83;12.23;;;;;;;25.40;75.56;95131.84;5092638;28;20451;-77
2023/07/17 00:22:27;;;;;;;14.87;13.20;;;;;;;25.43;74.87;95134.91;5041222;28;21001;-79
2023/07/17 00:24:55;;;;;;;14.57;13.07;;;;;;;25.49;73.80;95144.81;5092526;28;20491;-78
2023/07/17 00:27:22;;;;;;;15.40;13.47;;;;;;;25.57;73.49;95144.56;5092982;28;20451;-81
2023/07/17 00:29:48;;;;;;;20.80;14.10;;;;;;;25.69;74.20;95146.56;5092507;28;20964;-80
2023/07/17 00:32:15;;;;;;;15.10;13.13;;;;;;;25.78;74.54;95150.66;5092725;28;20961;-80
2023/07/17 00:34:44;;;;;;;14.60;13.10;;;;;;;25.85;75.07;95149.56;5092379;28;20451;-82
2023/07/17 00:37:11;;;;;;;15.20;13.60;;;;;;;25.91;74.61;95148.69;5092856;28;20472;-81
2023/07/17 00:39:39;;;;;;;15.67;13.80;;;;;;;25.96;74.70;95145.34;5092802;28;20436;-81
2023/07/17 00:42:06;;;;;;;20.20;14.10;;;;;;;25.96;74.36;95144.50;5093054;28;20440;-81
2023/07/17 00:44:35;;;;;;;15.20;13.70;;;;;;;25.97;74.42;95140.78;5041681;28;20483;-80
2023/07/17 00:47:03;;;;;;;15.50;14.00;;;;;;;25.99;74.52;95138.69;5093426;28;20443;-79
2023/07/17 00:49:31;;;;;;;15.00;13.47;;;;;;;26.02;74.73;95146.31;5093136;28;20447;-79
2023/07/17 00:52:00;;;;;;;15.40;13.90;;;;;;;26.06;74.36;95148.38;5093480;28;20440;-80
2023/07/17 00:54:29;;;;;;;23.47;14.40;;;;;;;26.10;74.17;95154.13;5093421;28;21035;-81
2023/07/17 00:56:58;;;;;;;14.87;12.67;;;;;;;26.02;72.05;95149.88;5093373;28;20835;-81
2023/07/17 00:59:25;;;;;;;16.60;13.30;;;;;;;26.01;71.78;95153.56;5097166;28;20431;-78
2023/07/17 01:01:52;;;;;;;14.40;12.90;;;;;;;26.01;72.04;95160.81;5096880;28;20434;-81
2023/07/17 01:04:19;;;;;;;14.53;11.90;;;;;;;25.91;70.71;95150.56;5097398;28;20486;-81
2023/07/17 01:06:46;;;;;;;11.87;10.50;;;;;;;25.87;69.84;95152.03;5096784;28;20790;-79
2023/07/17 01:09:16;;;;;;;11.67;10.00;;;;;;;25.84;69.02;95152.47;5096946;28;20444;-80
2023/07/17 01:11:43;;;;;;;11.80;10.60;;;;;;;25.79;68.37;95149.63;5096985;28;20431;-80
2023/07/17 01:14:15;;;;;;;12.43;11.23;;;;;;;25.71;68.00;95139.94;5097586;28;20432;-81
2023/07/17 01:16:43;;;;;;;11.63;10.40;;;;;;;25.65;67.57;95143.47;5096764;28;20473;-80
2023/07/17 01:19:09;;;;;;;15.63;10.60;;;;;;;25.64;67.03;95149.88;5097011;28;20432;-80
2023/07/17 01:21:40;;;;;;;14.60;10.20;;;;;;;25.59;67.21;95149.72;5096840;28;20428;-79
2023/07/17 01:24:08;;;;;;;10.37;9.27;;;;;;;25.66;66.46;95155.88;5096743;28;20450;-80
2023/07/17 01:26:35;;;;;;;11.17;10.07;;;;;;;25.61;65.96;95153.00;5097334;28;20420;-77
2023/07/17 01:29:03;;;;;;;11.83;9.10;;;;;;;25.52;65.45;95146.25;5096295;28;20911;-79
2023/07/17 01:31:30;;;;;;;10.30;9.13;;;;;;;25.44;65.12;95138.41;5045180;28;20991;-80
2023/07/17 01:33:57;;;;;;;11.03;9.37;;;;;;;25.46;64.56;95155.19;5096820;28;20428;-79
2023/07/17 01:36:26;;;;;;;9.20;8.40;;;;;;;25.43;64.70;95160.97;5097398;28;20475;-81
2023/07/17 01:38:54;;;;;;;9.90;9.00;;;;;;;25.44;64.08;95162.59;5064001;28;20985;-81
2023/07/17 01:41:23;;;;;;;12.90;11.70;;;;;;;25.18;70.12;95172.47;5099470;28;20472;-82
2023/07/17 01:43:50;;;;;;;14.67;13.10;;;;;;;24.57;77.51;95169.31;5096535;28;20435;-82
2023/07/17 01:46:17;;;;;;;16.27;14.57;;;;;;;24.46;78.37;95165.41;5102873;28;20475;-82
2023/07/17 01:48:43;;;;;;;18.90;15.00;;;;;;;24.00;82.09;95166.25;5117314;28;20921;-82
2023/07/17 01:51:10;;;;;;;15.33;13.57;;;;;;;23.98;81.80;95162.94;5116646;28;20503;-81
2023/07/17 01:53:37;;;;;;;17.63;14.70;;;;;;;24.01;81.54;95159.88;5116749;28;20449;-82
2023/07/17 01:56:05;;;;;;;19.70;14.27;;;;;;;24.16;81.07;95158.81;5116691;28;20477;-79
2023/07/17 01:58:36;;;;;;;14.80;13.20;;;;;;;24.24;80.76;95164.78;5081166;28;20442;-79
2023/07/17 02:01:03;;;;;;;14.50;12.70;;;;;;;24.36;80.16;95175.75;5116560;28;20453;-81
2023/07/17 02:03:31;;;;;;;15.63;13.97;;;;;;;24.45;79.49;95177.19;5116797;28;20427;-82
2023/07/17 02:05:58;;;;;;;14.20;12.57;;;;;;;24.51;78.79;95172.84;5116840;28;21015;-81
2023/07/17 02:08:25;;;;;;;13.27;11.83;;;;;;;24.56;77.94;95176.53;5116758;28;20446;-82
2023/07/17 02:10:53;;;;;;;10.80;9.80;;;;;;;24.57;75.51;95175.50;5116494;28;20444;-84
2023/07/17 02:13:20;;;;;;;10.43;9.03;;;;;;;24.54;72.18;95180.47;5116392;28;20432;-81
2023/07/17 02:19:09;;;;;;;8.57;7.63;;;;;;;24.54;67.64;95186.66;5115858;28;20849;-82
2023/07/17 02:21:36;;;;;;;8.40;7.60;;;;;;;24.57;66.72;95188.09;5116138;28;20937;-81
2023/07/17 02:24:04;;;;;;;8.90;7.50;;;;;;;24.56;66.01;95179.22;5116217;28;20791;-81
2023/07/17 02:26:30;;;;;;;8.00;7.10;;;;;;;24.56;66.17;95181.06;5116297;28;20960;-80
2023/07/17 02:28:57;;;;;;;8.50;7.70;;;;;;;24.49;65.23;95180.28;5115905;28;20456;-81
2023/07/17 02:31:24;;;;;;;7.80;7.10;;;;;;;24.53;65.15;95182.31;5115716;28;20444;-81
2023/07/17 02:33:51;;;;;;;7.57;6.77;;;;;;;24.50;64.77;95187.28;5115900;28;20434;-80
2023/07/17 02:36:19;;;;;;;8.47;7.67;;;;;;;24.46;65.32;95188.75;5116046;28;20548;-80
2023/07/17 02:38:46;;;;;;;10.70;8.07;;;;;;;24.45;64.57;95190.59;5115596;28;20427;-81
2023/07/17 02:41:13;;;;;;;9.03;8.03;;;;;;;24.45;64.52;95195.97;5115691;28;20454;-81
2023/07/17 02:43:40;;;;;;;9.37;7.63;;;;;;;24.36;65.24;95183.81;5115767;28;20965;-79
2023/07/17 02:46:07;;;;;;;7.40;6.80;;;;;;;24.43;65.09;95191.84;5115527;28;20478;-80
2023/07/17 02:48:34;;;;;;;8.73;7.43;;;;;;;24.46;64.92;95196.78;5115573;28;20437;-81
2023/07/17 02:51:00;;;;;;;8.50;7.60;;;;;;;24.51;64.75;95197.81;5115457;28;20450;-81
2023/07/17 02:53:29;;;;;;;8.00;7.20;;;;;;;24.53;64.14;95187.69;5116379;28;20431;-80
2023/07/17 02:55:56;;;;;;;8.03;7.33;;;;;;;24.54;63.83;95193.88;5115523;28;20439;-81
2023/07/17 02:58:23;;;;;;;11.60;7.50;;;;;;;24.51;63.76;95194.28;5115591;28;20450;-81
2023/07/17 03:00:50;;;;;;;11.60;7.20;;;;;;;24.55;64.17;95200.91;5115705;28;20856;-82
2023/07/17 03:03:17;;;;;;;11.40;7.33;;;;;;;24.45;63.67;95182.53;5115740;28;20437;-80
2023/07/17 03:05:43;;;;;;;16.13;6.73;;;;;;;24.52;63.72;95199.44;5115256;28;20562;-79
2023/07/17 03:08:10;;;;;;;7.77;6.77;;;;;;;24.48;63.30;95192.84;5063394;28;20439;-80
2023/07/17 03:10:38;;;;;;;7.50;6.80;;;;;;;24.36;63.63;95187.31;5114914;28;20914;-81
2023/07/17 03:13:05;;;;;;;11.43;7.23;;;;;;;24.28;63.50;95189.38;5115146;28;20450;-78
2023/07/17 03:15:32;;;;;;;9.50;7.23;;;;;;;24.25;63.80;95187.88;5115204;28;20438;-80
2023/07/17 03:17:59;;;;;;;8.77;7.83;;;;;;;24.24;64.04;95193.47;5115283;28;20442;-81
2023/07/17 03:20:27;;;;;;;7.40;6.40;;;;;;;24.31;63.64;95205.06;5114852;28;20447;-82
2023/07/17 03:22:54;;;;;;;8.17;7.43;;;;;;;24.26;63.64;95192.22;5114761;28;20906;-83
2023/07/17 03:25:21;;;;;;;7.17;6.47;;;;;;;24.31;63.50;95205.06;5062794;28;20478;-81
2023/07/17 03:27:49;;;;;;;8.50;6.70;;;;;;;24.49;63.39;95205.25;5114800;28;20438;-82
2023/07/17 03:30:16;;;;;;;9.53;7.00;;;;;;;24.65;62.87;95210.19;5114440;28;20442;-82
2023/07/17 03:32:43;;;;;;;7.77;6.97;;;;;;;24.82;61.82;95202.50;5114746;28;20522;-83
2023/07/17 03:35:10;;;;;;;9.03;7.60;;;;;;;24.99;60.82;95210.97;5114213;28;20793;-81
2023/07/17 03:37:37;;;;;;;11.87;6.17;;;;;;;25.22;59.95;95207.78;5114469;28;21011;-80
2023/07/17 03:40:05;;;;;;;10.07;7.50;;;;;;;25.51;59.58;95206.41;5114664;28;20423;-82
2023/07/17 03:42:31;;;;;;;12.53;6.93;;;;;;;25.72;58.43;95208.78;5114350;28;20439;-84
2023/07/17 03:45:00;;;;;;;19.63;7.57;;;;;;;25.86;58.08;95214.91;5114705;28;20427;-81
2023/07/17 03:47:27;;;;;;;10.47;6.70;;;;;;;26.05;57.63;95216.66;5114577;28;20427;-79
2023/07/17 03:49:53;;;;;;;10.00;6.47;;;;;;;26.15;57.23;95208.09;5114685;28;20451;-81
2023/07/17 03:52:20;;;;;;;7.53;6.60;;;;;;;26.36;56.28;95217.69;5114815;28;20455;-81
2023/07/17 03:54:47;;;;;;;10.80;6.57;;;;;;;26.52;55.76;95215.25;5115013;28;20450;-79
2023/07/17 03:57:14;;;;;;;8.60;6.87;;;;;;;26.74;58.28;95226.44;5114125;28;20427;-82
2023/07/17 03:59:49;;;;;;;14.43;9.30;;;;;;;26.27;62.05;95222.47;5113942;28;20441;-82
2023/07/17 04:02:20;;;;;;;9.87;8.60;;;;;;;26.49;61.72;95217.56;5113542;28;20486;-82
2023/07/17 04:04:48;;;;;;;11.30;8.97;;;;;;;26.62;61.11;95224.72;5113631;28;20443;-82
2023/07/17 04:07:17;;;;;;;8.00;7.30;;;;;;;26.79;59.70;95231.16;5113630;28;20842;-81
2023/07/17 04:09:44;;;;;;;9.00;8.20;;;;;;;26.91;58.35;95232.09;5113769;28;20443;-82
2023/07/17 04:12:13;;;;;;;19.97;8.80;;;;;;;27.07;58.74;95230.69;5078150;28;20449;-79
2023/07/17 04:14:40;;;;;;;10.90;8.47;;;;;;;27.33;58.35;95233.09;5113961;28;20442;-81
2023/07/17 04:17:07;;;;;;;6.90;6.30;;;;;;;27.49;55.79;95239.75;5114007;28;20807;-82
2023/07/17 04:19:36;;;;;;;7.50;6.80;;;;;;;27.64;55.15;95237.50;5113722;28;20438;-82
2023/07/17 04:22:03;;;;;;;10.43;6.73;;;;;;;27.76;53.51;95242.97;5112977;28;20443;-82
2023/07/17 04:24:29;;;;;;;9.93;6.37;;;;;;;27.96;54.08;95235.41;5108386;28;20795;-86
2023/07/17 04:26:56;;;;;;;11.30;6.67;;;;;;;28.32;54.56;95241.75;5061228;28;20479;-81
2023/07/17 04:29:23;;;;;;;11.20;6.13;;;;;;;28.75;54.45;95238.75;5113290;28;20458;-79
2023/07/17 04:31:50;;;;;;;9.00;6.60;;;;;;;28.93;49.97;95233.28;5113740;28;20454;-79
2023/07/17 04:34:17;;;;;;;15.63;7.77;;;;;;;29.22;54.19;95236.91;5117461;28;20454;-80
2023/07/17 04:36:50;;;;;;;8.77;7.13;;;;;;;29.50;50.88;95228.06;5118204;28;20470;-82
2023/07/17 04:39:17;;;;;;;14.93;6.77;;;;;;;29.79;50.44;95233.50;5117546;28;20937;-80
2023/07/17 04:41:44;;;;;;;22.97;9.27;;;;;;;29.91;50.48;95239.66;5082396;28;20439;-82
2023/07/17 04:44:11;;;;;;;8.37;7.47;;;;;;;29.87;51.15;95239.31;5118904;28;20423;-79
2023/07/17 04:46:38;;;;;;;12.17;8.87;;;;;;;29.78;50.95;95240.78;5122872;28;20953;-84
2023/07/17 04:49:05;;;;;;;11.00;9.03;;;;;;;29.67;52.80;95246.22;5120485;28;20455;-82
2023/07/17 04:54:55;;;;;;;10.80;7.53;;;;;;;29.71;53.04;95256.31;5118856;28;20453;-82
2023/07/17 04:57:22;;;;;;;13.13;7.27;;;;;;;30.04;50.26;95260.22;5119163;28;20431;-82
2023/07/17 04:59:49;;;;;;;10.33;8.53;;;;;;;30.29;50.46;95247.16;5117961;28;20505;-82
2023/07/17 05:02:15;;;;;;;8.00;7.20;;;;;;;30.61;49.33;95255.56;5118046;28;20953;-83
2023/07/17 05:04:42;;;;;;;11.63;8.83;;;;;;;30.79;48.04;95252.63;5117950;28;20426;-88
2023/07/17 05:07:37;;;;;;;7.90;7.10;;;;;;;30.47;46.81;95256.94;5118348;28;20836;-84
2023/07/17 05:10:08;;;;;;;8.47;7.57;;;;;;;29.94;48.78;95263.53;5097274;28;20443;-84
2023/07/17 05:12:35;;;;;;;9.87;7.80;;;;;;;30.03;49.05;95253.97;5046971;28;20447;-84
2023/07/17 05:15:04;;;;;;;12.50;7.40;;;;;;;29.90;48.71;95254.25;5098203;28;20427;-84
2023/07/17 05:17:30;;;;;;;7.90;7.20;;;;;;;29.86;49.96;95261.22;5097380;28;20436;-83
2023/07/17 05:19:57;;;;;;;11.43;9.23;;;;;;;30.18;48.75;95259.69;5045684;28;20456;-84
2023/07/17 05:22:25;;;;;;;18.87;8.77;;;;;;;30.50;48.09;95262.69;5096747;28;20434;-82
2023/07/17 05:24:52;;;;;;;12.53;7.67;;;;;;;30.31;48.02;95265.84;5095658;28;20868;-84
2023/07/17 05:27:20;;;;;;;10.53;7.90;;;;;;;30.28;47.84;95266.34;5096162;28;20487;-83
2023/07/17 05:29:47;;;;;;;12.60;7.83;;;;;;;30.32;48.21;95268.31;5095785;28;20934;-83
2023/07/17 05:32:14;;;;;;;11.43;7.80;;;;;;;30.50;48.82;95272.69;5096100;28;20453;-84
2023/07/17 05:34:41;;;;;;;10.20;8.20;;;;;;;30.55;48.28;95269.25;5095962;28;20467;-84
2023/07/17 05:37:08;;;;;;;14.67;7.57;;;;;;;30.59;48.70;95268.50;5095223;28;20475;-84
2023/07/17 05:39:34;;;;;;;8.27;6.80;;;;;;;30.67;46.68;95270.03;5094700;28;20968;-84
2023/07/17 05:42:02;;;;;;;9.90;6.83;;;;;;;30.85;47.16;95269.78;5094218;28;20440;-84
2023/07/17 05:44:30;;;;;;;8.73;6.47;;;;;;;31.19;46.37;95272.47;5093594;28;20805;-84
2023/07/17 05:46:57;;;;;;;11.80;5.93;;;;;;;31.57;45.57;95274.38;5042808;28;20491;-86
2023/07/17 05:49:24;;;;;;;8.13;6.73;;;;;;;31.90;44.94;95260.69;5095481;28;20440;-84
2023/07/17 05:51:50;;;;;;;7.10;6.50;;;;;;;32.22;44.36;95265.38;5095123;28;20941;-85
2023/07/17 05:54:17;;;;;;;7.40;6.50;;;;;;;32.75;45.38;95269.97;5095548;28;20444;-88
2023/07/17 05:56:44;;;;;;;12.27;7.87;;;;;;;33.17;42.55;95275.47;5095181;28;20448;-83
2023/07/17 05:59:11;;;;;;;11.13;6.80;;;;;;;33.56;41.51;95275.22;5094453;28;20440;-83
2023/07/17 06:01:40;;;;;;;7.20;6.70;;;;;;;33.66;39.27;95274.44;5094320;28;20462;-86
2023/07/17 06:04:07;;;;;;;6.90;6.20;;;;;;;33.68;39.54;95273.06;5094623;28;20451;-88
2023/07/17 06:06:34;;;;;;;8.30;6.30;;;;;;;33.64;39.92;95271.16;5094451;28;20844;-85
2023/07/17 06:09:02;;;;;;;8.33;6.40;;;;;;;33.70;39.61;95273.63;5094185;28;20448;-85
2023/07/17 06:11:29;;;;;;;8.03;7.33;;;;;;;33.76;39.80;95269.03;5094190;28;20861;-87
2023/07/17 06:13:56;;;;;;;6.80;5.83;;;;;;;33.89;39.03;95270.47;5094142;28;20452;-86
2023/07/17 06:16:23;;;;;;;9.80;6.80;;;;;;;34.04;38.62;95273.25;5094285;28;20884;-85
2023/07/17 06:18:51;;;;;;;8.23;7.43;;;;;;;34.12;39.61;95275.47;5094266;28;20452;-84
2023/07/17 06:21:18;;;;;;;8.10;7.50;;;;;;;34.26;39.37;95273.03;5042419;28;20451;-86
2023/07/17 06:23:49;;;;;;;10.00;7.30;;;;;;;34.37;40.30;95270.06;5094609;28;20486;-87
2023/07/17 06:26:17;;;;;;;10.80;7.57;;;;;;;34.40;39.70;95266.81;5095286;28;20472;-86
2023/07/17 06:28:46;;;;;;;11.03;7.40;;;;;;;34.53;39.88;95259.22;5097434;28;20451;-88
2023/07/17 06:31:13;;;;;;;8.07;6.93;;;;;;;34.32;39.60;95266.50;5094355;28;20444;-85
2023/07/17 06:33:40;;;;;;;9.03;7.43;;;;;;;34.33;41.12;95263.50;5094530;28;20554;-86
2023/07/17 06:36:08;;;;;;;15.97;9.03;;;;;;;34.43;40.41;95266.28;5052733;28;1209364;-87
2023/07/17 06:38:35;;;;;;;15.10;9.83;;;;;;;34.54;41.02;95264.38;5098990;28;20194;-88
2023/07/17 06:41:05;;;;;;;9.63;8.73;;;;;;;34.66;40.96;95264.09;5061369;28;20451;-86
2023/07/17 06:43:32;;;;;;;11.03;9.30;;;;;;;34.79;40.07;95272.59;5095239;28;20933;-85
2023/07/17 06:45:59;;;;;;;13.53;9.80;;;;;;;34.82;39.84;95260.31;5094914;28;20523;-86
2023/07/17 06:48:25;;;;;;;11.43;9.53;;;;;;;34.90;39.15;95264.41;5094491;28;20819;-85
2023/07/17 06:50:56;;;;;;;9.63;8.63;;;;;;;34.69;39.46;95256.19;5094049;28;20451;-86
2023/07/17 06:53:24;;;;;;;11.27;9.27;;;;;;;34.49;41.63;95239.84;5094606;28;20452;-85
2023/07/17 06:55:57;;;;;;;14.40;8.60;;;;;;;34.45;40.67;95253.22;5093855;28;20454;-83
2023/07/17 06:58:24;;;;;;;12.10;9.20;;;;;;;34.11;42.26;95250.09;5042074;28;20471;-84
2023/07/17 07:00:56;;;;;;;16.03;8.83;;;;;;;34.32;43.05;95245.50;5094286;28;20825;-83
2023/07/17 07:03:23;;;;;;;10.60;9.43;;;;;;;34.29;42.09;95247.97;5094497;28;20476;-80
2023/07/17 07:05:57;;;;;;;10.63;9.50;;;;;;;34.37;41.08;95242.00;5093959;28;20791;-88
2023/07/17 07:08:27;;;;;;;11.33;10.23;;;;;;;34.34;41.65;95254.28;5094512;28;20807;-90
2023/07/17 07:10:55;;;;;;;11.07;9.50;;;;;;;34.14;41.67;95248.78;5094949;28;20923;-89
2023/07/17 07:13:22;;;;;;;12.60;10.13;;;;;;;34.04;42.56;95249.53;5097096;28;20432;-89
2023/07/17 07:15:52;;;;;;;14.10;9.90;;;;;;;33.85;41.90;95251.94;5095452;28;20946;-90
2023/07/17 07:18:19;;;;;;;14.63;10.60;;;;;;;33.77;41.96;95248.88;5095560;28;20452;-88
2023/07/17 07:20:47;;;;;;;17.60;11.60;;;;;;;33.64;42.67;95252.91;5095955;28;20804;-89
2023/07/17 07:23:14;;;;;;;11.60;10.40;;;;;;;33.69;42.29;95239.31;5095223;28;20439;-87
2023/07/17 07:25:43;;;;;;;11.47;10.23;;;;;;;33.75;44.22;95234.72;5095358;28;20448;-89
2023/07/17 07:28:11;;;;;;;18.73;12.13;;;;;;;33.84;42.60;95236.69;5094866;28;20480;-88
2023/07/17 07:30:38;;;;;;;13.40;11.93;;;;;;;33.76;45.55;95244.50;5095108;28;20462;-88
2023/07/17 07:33:05;;;;;;;12.17;10.90;;;;;;;33.84;43.38;95235.88;5095230;28;20444;-86
2023/07/17 07:35:32;;;;;;;15.27;12.20;;;;;;;33.92;44.02;95232.63;5046487;28;20479;-90
2023/07/17 07:38:01;;;;;;;15.63;12.73;;;;;;;34.05;42.96;95234.84;5099270;28;20450;-89
2023/07/17 07:40:28;;;;;;;16.67;13.03;;;;;;;34.07;42.19;95232.66;5097429;28;20448;-84
2023/07/17 07:42:57;;;;;;;13.30;10.90;;;;;;;34.16;46.84;95230.25;5093837;28;20459;-83
2023/07/17 07:45:24;;;;;;;14.20;11.63;;;;;;;34.38;44.04;95230.84;5093874;28;20474;-87
2023/07/17 07:47:51;;;;;;;11.70;10.33;;;;;;;34.62;42.96;95233.03;5093747;28;20480;-83
2023/07/17 07:50:18;;;;;;;12.93;11.53;;;;;;;34.82;44.21;95235.75;5093350;28;20863;-84
2023/07/17 07:52:44;;;;;;;12.13;10.90;;;;;;;35.07;47.70;95230.31;5093342;28;20432;-82
2023/07/17 07:55:11;;;;;;;15.87;10.77;;;;;;;35.03;41.47;95229.22;5093014;28;20443;-86
2023/07/17 07:57:39;;;;;;;12.60;11.40;;;;;;;35.03;42.08;95231.97;5093256;28;20442;-86
2023/07/17 08:00:10;;;;;;;15.13;11.90;;;;;;;34.97;42.18;95224.03;5093344;28;20910;-85
2023/07/17 08:02:37;;;;;;;14.73;10.90;;;;;;;34.85;41.81;95223.53;5092961;28;20786;-84
2023/07/17 08:05:04;;;;;;;11.80;10.60;;;;;;;34.87;42.08;95226.78;5093284;28;20451;-84
2023/07/17 08:07:31;;;;;;;15.60;10.77;;;;;;;35.00;46.80;95223.50;5092575;28;20480;-85
2023/07/17 08:09:57;;;;;;;14.17;11.57;;;;;;;34.88;41.13;95221.06;5096490;28;20459;-84
2023/07/17 08:12:24;;;;;;;18.53;12.57;;;;;;;34.70;42.04;95224.31;5098094;28;20446;-86
2023/07/17 08:14:53;;;;;;;17.23;11.37;;;;;;;34.54;41.70;95219.94;5094433;28;20448;-81
2023/07/17 08:17:21;;;;;;;21.83;11.07;;;;;;;34.35;42.35;95214.22;5093900;28;20816;-82
2023/07/17 08:19:50;;;;;;;24.83;12.30;;;;;;;34.19;43.68;95213.34;5093443;28;20440;-82
2023/07/17 08:22:20;;;;;;;14.13;11.33;;;;;;;33.99;44.75;95210.59;5040891;28;20455;-81
2023/07/17 08:24:47;;;;;;;16.70;12.13;;;;;;;34.01;43.46;95208.41;5040851;28;20452;-82
2023/07/17 08:27:15;;;;;;;14.10;12.57;;;;;;;34.04;44.18;95213.31;5092475;28;20535;-81
2023/07/17 08:29:42;;;;;;;14.80;12.20;;;;;;;33.85;44.06;95200.22;5092870;28;20820;-81
2023/07/17 08:32:10;;;;;;;16.80;12.57;;;;;;;34.08;45.31;95203.50;5092787;28;20447;-78
2023/07/17 08:34:39;;;;;;;15.10;12.37;;;;;;;34.16;42.82;95214.72;5040929;28;20447;-82
2023/07/17 08:37:06;;;;;;;12.90;11.00;;;;;;;34.18;42.81;95196.19;5093951;28;20480;-81
2023/07/17 08:39:33;;;;;;;20.60;13.00;;;;;;;34.06;42.22;95197.53;5094608;28;20439;-80
2023/07/17 08:41:59;;;;;;;13.10;11.17;;;;;;;34.07;43.47;95193.69;5095115;28;20451;-81
2023/07/17 08:44:28;;;;;;;15.60;12.70;;;;;;;33.80;43.04;95205.59;5094576;28;20440;-80
2023/07/17 08:46:57;;;;;;;16.17;12.77;;;;;;;33.68;43.35;95205.03;5094336;28;20480;-80
2023/07/17 08:49:25;;;;;;;22.47;12.50;;;;;;;33.88;44.51;95203.50;5094824;28;20471;-80
2023/07/17 08:51:57;;;;;;;19.07;12.90;;;;;;;34.06;45.55;95194.78;5095085;28;20480;-81
2023/07/17 08:54:24;;;;;;;21.67;13.80;;;;;;;33.97;43.97;95190.97;5094869;28;20439;-80
2023/07/17 08:56:51;;;;;;;17.30;12.17;;;;;;;33.95;43.23;95195.88;5093030;28;20471;-81
2023/07/17 08:59:21;;;;;;;18.73;14.87;;;;;;;33.83;44.29;95193.41;5092814;28;20448;-81
2023/07/17 09:01:50;;;;;;;35.53;19.23;;;;;;;33.65;43.42;95196.56;5040775;28;20451;-79
2023/07/17 09:04:17;;;;;;;22.80;13.50;;;;;;;33.81;43.00;95196.34;5056889;28;20947;-80
2023/07/17 09:06:44;;;;;;;24.93;13.20;;;;;;;33.97;44.27;95191.78;5092591;28;20931;-87
2023/07/17 09:09:17;;;;;;;26.87;16.33;;;;;;;34.16;42.06;95186.66;5093489;28;20443;-87
2023/07/17 09:11:44;;;;;;;23.00;17.80;;;;;;;34.13;42.79;95173.56;5093564;28;20451;-87
2023/07/17 09:14:10;;;;;;;24.60;17.40;;;;;;;34.38;41.82;95187.22;5094072;28;20447;-85
2023/07/17 09:16:40;;;;;;;30.97;19.70;;;;;;;34.51;42.16;95187.78;5094817;28;20436;-86
2023/07/17 09:19:06;;;;;;;77.57;48.10;;;;;;;34.44;42.96;95179.91;5094429;28;20455;-88
2023/07/17 09:21:33;;;;;;;27.30;17.77;;;;;;;34.27;45.00;95187.47;5097114;28;20444;-88
2023/07/17 09:24:00;;;;;;;17.67;14.37;;;;;;;34.34;41.99;95182.59;5044868;28;20440;-86
2023/07/17 09:26:30;;;;;;;27.93;21.10;;;;;;;34.32;41.79;95173.84;5096490;28;20475;-87
2023/07/17 09:28:59;;;;;;;41.37;27.83;;;;;;;34.15;44.71;95168.69;5096327;28;20856;-86
2023/07/17 09:31:27;;;;;;;20.90;13.93;;;;;;;34.23;43.23;95168.13;5096656;28;20458;-88
2023/07/17 09:33:55;;;;;;;19.20;13.10;;;;;;;33.95;42.14;95168.63;5097707;28;20855;-87
2023/07/17 09:36:22;;;;;;;21.40;15.43;;;;;;;33.78;41.31;95169.66;5098421;28;20475;-86
2023/07/17 09:38:54;;;;;;;16.80;12.27;;;;;;;33.80;42.07;95166.66;5096237;28;20508;-83
2023/07/17 09:41:23;;;;;;;21.30;13.27;;;;;;;34.00;41.85;95165.91;5095562;28;20448;-83
2023/07/17 09:44:00;;;;;;;25.97;13.17;;;;;;;33.89;42.45;95158.81;5096190;28;20446;-83
2023/07/17 09:46:27;;;;;;;18.43;12.03;;;;;;;33.41;42.86;95158.91;5096021;28;20443;-83
2023/07/17 09:48:56;;;;;;;15.57;12.90;;;;;;;33.29;43.58;95160.22;5095767;28;20479;-84
2023/07/17 09:51:24;;;;;;;16.23;10.90;;;;;;;33.33;42.33;95161.34;5095660;28;20866;-81
2023/07/17 09:53:51;;;;;;;11.60;10.50;;;;;;;33.58;43.83;95153.28;5095602;28;20484;-82
2023/07/17 09:56:20;;;;;;;14.17;11.83;;;;;;;33.68;43.06;95150.56;5095524;28;20448;-81
2023/07/17 09:58:49;;;;;;;17.13;11.50;;;;;;;33.51;42.41;95152.69;5096036;28;20447;-82
2023/07/17 10:01:18;;;;;;;9.63;8.80;;;;;;;33.64;39.86;95154.09;5095563;28;20441;-77
2023/07/17 10:03:47;;;;;;;19.10;9.77;;;;;;;33.72;39.83;95148.13;5043789;28;20977;-80
2023/07/17 10:06:15;;;;;;;11.00;10.00;;;;;;;33.53;43.07;95145.06;5059667;28;20432;-83
2023/07/17 10:08:50;;;;;;;11.07;9.30;;;;;;;33.42;38.63;95151.56;5094896;28;20506;-80
2023/07/17 10:11:21;;;;;;;11.43;10.33;;;;;;;33.63;43.24;95144.31;5095640;28;20443;-79
2023/07/17 10:13:49;;;;;;;14.73;10.50;;;;;;;33.81;40.16;95144.59;5095713;28;20447;-80
2023/07/17 10:16:19;;;;;;;14.43;11.60;;;;;;;33.88;40.09;95140.84;5095334;28;20526;-80
2023/07/17 10:18:48;;;;;;;10.87;9.77;;;;;;;33.84;38.30;95151.47;5094834;28;20469;-81
2023/07/17 10:21:16;;;;;;;9.70;8.87;;;;;;;33.50;37.39;95140.16;5094812;28;20448;-80
2023/07/17 10:23:44;;;;;;;15.30;10.27;;;;;;;33.72;39.10;95142.69;5059110;28;20965;-81
2023/07/17 10:26:12;;;;;;;13.33;9.80;;;;;;;33.71;37.99;95136.41;5094959;28;20454;-81
2023/07/17 10:28:40;;;;;;;12.00;9.10;;;;;;;33.73;36.58;95131.53;5094794;28;20480;-79
2023/07/17 10:31:17;;;;;;;11.00;9.90;;;;;;;33.73;36.69;95123.34;5093394;28;20448;-80
2023/07/17 10:33:49;;;;;;;14.03;11.73;;;;;;;33.75;38.05;95129.34;5094911;28;20531;-80
2023/07/17 10:36:16;;;;;;;11.93;8.33;;;;;;;33.84;37.11;95132.41;5094485;28;21028;-80
2023/07/17 10:38:49;;;;;;;12.73;9.77;;;;;;;33.92;35.74;95117.44;5094472;28;20950;-81
2023/07/17 10:41:25;;;;;;;9.50;8.60;;;;;;;34.02;36.37;95115.53;5094761;28;20448;-81
2023/07/17 10:43:54;;;;;;;10.00;9.10;;;;;;;33.98;36.83;95113.63;5094720;28;20449;-80
2023/07/17 10:46:26;;;;;;;14.63;9.20;;;;;;;34.05;36.58;95108.72;5094970;28;20809;-80
2023/07/17 10:48:54;;;;;;;10.50;8.93;;;;;;;34.18;37.63;95117.19;5094545;28;20479;-80
2023/07/17 10:51:27;;;;;;;9.93;8.70;;;;;;;34.26;37.10;95109.53;5095122;28;20447;-80
2023/07/17 10:53:57;;;;;;;11.10;9.70;;;;;;;34.32;36.80;95103.00;5098539;28;20452;-80
2023/07/17 10:56:24;;;;;;;9.93;9.03;;;;;;;34.32;36.15;95103.81;5099282;28;20524;-79
2023/07/17 10:58:52;;;;;;;16.97;10.57;;;;;;;34.43;37.08;95100.03;5099558;28;20432;-80
2023/07/17 11:01:19;;;;;;;13.17;8.60;;;;;;;34.53;36.81;95101.09;5045470;28;20440;-80
2023/07/17 11:03:49;;;;;;;11.00;9.80;;;;;;;34.68;36.64;95101.06;5098752;28;20432;-80
2023/07/17 11:06:25;;;;;;;15.83;9.70;;;;;;;34.83;36.11;95109.22;5098509;28;20436;-81
2023/07/17 11:08:53;;;;;;;13.97;9.30;;;;;;;34.85;33.42;95103.53;5096684;28;20502;-81
2023/07/17 11:11:20;;;;;;;9.47;8.53;;;;;;;34.78;35.13;95101.06;5097786;28;20444;-80
2023/07/17 11:13:48;;;;;;;11.00;9.83;;;;;;;34.79;36.12;95100.78;5094681;28;20440;-79
2023/07/17 11:16:16;;;;;;;10.30;9.17;;;;;;;34.70;34.33;95096.19;5094633;28;20448;-80
2023/07/17 11:18:44;;;;;;;13.63;10.90;;;;;;;34.61;36.25;95092.38;5100824;28;20454;-80
2023/07/17 11:21:11;;;;;;;22.70;11.63;;;;;;;34.43;36.64;95091.88;5106619;28;20493;-80
2023/07/17 11:23:47;;;;;;;13.30;10.20;;;;;;;34.30;35.43;95084.19;5106852;28;20451;-79
2023/07/17 11:26:16;;;;;;;12.30;8.77;;;;;;;34.48;37.55;95085.59;5071161;28;20443;-81
2023/07/17 11:28:43;;;;;;;13.33;7.70;;;;;;;34.30;35.73;95083.38;5106436;28;20487;-80
2023/07/17 11:31:18;;;;;;;9.60;8.60;;;;;;;34.27;34.92;95084.75;5106151;28;20455;-80
2023/07/17 11:33:50;;;;;;;10.77;9.17;;;;;;;34.00;36.41;95079.56;5106238;28;20443;-79